Time;durP1;ratioP1;P1;durP2;ratioP2;P2;SDS_P1;SDS_P2;PMS_P1;PMS_P2;Temp;Humidity;BMP_temperature;BMP_pressure;BME280_temperature;BME280_humidity;BME280_pressure;Samples;Min_cycle;Max_cycle;Signal;HPM_P1;HPM_P2
2022/08/31 00:05:11;;;;;;;31.80;19.58;;;;;;;25.33;56.27;94489.56;5017929;28;97268;-74
2022/08/31 00:07:36;;;;;;;24.92;16.60;;;;;;;25.16;53.39;94486.84;5021657;28;97107;-78
2022/08/31 00:10:12;;;;;;;22.00;15.80;;;;;;;25.07;51.84;94484.69;5020751;27;97573;-72
2022/08/31 00:12:38;;;;;;;18.75;14.77;;;;;;;24.96;51.95;94489.72;5021153;28;99554;-69
2022/08/31 00:15:04;;;;;;;18.80;14.80;;;;;;;24.84;52.33;94483.66;5021544;28;98496;-69
2022/08/31 00:17:30;;;;;;;18.80;13.88;;;;;;;24.69;52.44;94488.72;5021127;28;98892;-71
2022/08/31 00:19:55;;;;;;;17.02;14.35;;;;;;;24.70;52.44;94490.28;5020837;28;99273;-74
2022/08/31 00:22:21;;;;;;;17.35;14.55;;;;;;;24.68;52.25;94491.91;5021556;28;99320;-76
2022/08/31 00:24:46;;;;;;;19.60;14.23;;;;;;;24.51;52.68;94483.59;5021136;28;97799;-75
2022/08/31 00:27:14;;;;;;;20.77;13.77;;;;;;;24.51;52.71;94491.13;5023922;27;97110;-73
2022/08/31 00:29:44;;;;;;;19.80;13.25;;;;;;;24.48;52.88;94484.47;5020519;28;97960;-74
2022/08/31 00:32:12;;;;;;;17.30;12.68;;;;;;;24.45;52.79;94485.31;5020302;28;97761;-75
2022/08/31 00:34:39;;;;;;;16.52;12.48;;;;;;;24.42;52.99;94480.69;5022595;28;96856;-76
2022/08/31 00:37:06;;;;;;;17.02;12.35;;;;;;;24.38;53.12;94479.97;5022002;27;97449;-76
2022/08/31 00:39:33;;;;;;;15.55;12.27;;;;;;;24.37;53.12;94486.69;5019185;28;97740;-76
2022/08/31 00:42:00;;;;;;;16.13;12.63;;;;;;;24.33;53.04;94483.25;5025541;28;97385;-76
2022/08/31 00:44:26;;;;;;;16.95;12.57;;;;;;;24.28;53.50;94477.03;5020894;28;97025;-73
2022/08/31 00:46:51;;;;;;;16.25;11.70;;;;;;;24.30;53.10;94482.09;5020986;28;98861;-76
2022/08/31 00:49:18;;;;;;;17.15;12.45;;;;;;;24.30;52.81;94490.38;5019501;28;100807;-73
2022/08/31 00:51:55;;;;;;;17.02;12.25;;;;;;;24.30;53.41;94484.09;5018975;28;96930;-78
2022/08/31 00:54:29;;;;;;;16.67;13.07;;;;;;;24.19;53.84;94485.09;5018925;28;97378;-73
2022/08/31 00:56:55;;;;;;;16.30;12.75;;;;;;;24.16;54.17;94485.94;5019069;28;96834;-73
2022/08/31 00:59:20;;;;;;;17.40;12.50;;;;;;;24.20;54.16;94494.94;5019887;28;98139;-72
2022/08/31 01:01:46;;;;;;;17.30;12.50;;;;;;;24.20;54.61;94497.69;5003290;28;99393;-73
2022/08/31 01:04:11;;;;;;;17.27;11.95;;;;;;;24.20;54.53;94497.69;5020281;28;98491;-72
2022/08/31 01:06:37;;;;;;;16.33;12.40;;;;;;;24.15;54.54;94500.94;5020461;28;97062;-73
2022/08/31 01:09:03;;;;;;;18.15;12.95;;;;;;;24.13;54.58;94504.16;5018982;28;100049;-72
2022/08/31 01:11:29;;;;;;;17.48;13.10;;;;;;;24.10;54.42;94499.47;5019978;28;99662;-72
2022/08/31 01:13:54;;;;;;;16.90;12.88;;;;;;;24.10;54.56;94501.44;5020686;28;98387;-71
2022/08/31 01:16:26;;;;;;;14.25;12.30;;;;;;;24.01;55.40;94496.53;5022068;28;97537;-68
2022/08/31 01:18:52;;;;;;;16.33;13.70;;;;;;;24.03;54.95;94487.81;5020325;28;99505;-72
2022/08/31 01:21:23;;;;;;;18.15;13.10;;;;;;;24.08;54.22;94501.09;5019481;28;99215;-72
2022/08/31 01:23:49;;;;;;;21.00;18.63;;;;;;;24.12;54.67;94499.03;5020267;28;98406;-69
2022/08/31 01:26:16;;;;;;;26.75;21.33;;;;;;;24.21;56.74;94499.25;5013528;28;96979;-69
2022/08/31 01:28:42;;;;;;;24.63;21.42;;;;;;;24.13;59.48;94486.81;4996057;28;99668;-70
2022/08/31 01:31:24;;;;;;;24.65;19.52;;;;;;;24.21;60.57;94499.25;5012828;28;99405;-71
2022/08/31 01:33:49;;;;;;;26.48;20.58;;;;;;;24.23;60.65;94496.84;5013677;28;96900;-70
2022/08/31 01:36:14;;;;;;;22.95;19.98;;;;;;;24.22;60.55;94481.50;5014448;28;96962;-70
2022/08/31 01:38:40;;;;;;;26.83;22.98;;;;;;;24.23;60.92;94491.31;5014173;28;99473;-69
2022/08/31 01:41:06;;;;;;;24.92;21.65;;;;;;;24.34;60.32;94495.84;5014311;28;99517;-70
2022/08/31 01:43:34;;;;;;;27.88;21.35;;;;;;;24.36;60.76;94487.91;5014392;28;96762;-69
2022/08/31 01:46:01;;;;;;;28.52;21.40;;;;;;;24.37;60.24;94490.22;5014056;28;97057;-70
2022/08/31 01:48:26;;;;;;;24.23;21.33;;;;;;;24.43;60.05;94493.28;5011936;28;99854;-69
2022/08/31 01:50:52;;;;;;;24.38;20.52;;;;;;;24.44;59.56;94489.28;5011631;28;99353;-70
2022/08/31 01:53:17;;;;;;;23.30;20.23;;;;;;;24.48;59.62;94492.75;5012178;28;96716;-69
2022/08/31 01:55:43;;;;;;;24.73;19.25;;;;;;;24.50;58.69;94495.84;5012130;28;97433;-70
2022/08/31 01:58:08;;;;;;;21.98;19.58;;;;;;;24.46;58.54;94489.63;5011433;28;99576;-70
2022/08/31 02:00:34;;;;;;;23.33;19.05;;;;;;;24.52;57.84;94490.66;5011784;28;99453;-69
2022/08/31 02:03:00;;;;;;;22.75;19.65;;;;;;;24.55;58.21;94495.34;5012571;28;96933;-69
2022/08/31 02:05:27;;;;;;;24.30;19.45;;;;;;;24.56;57.90;94491.38;5014313;28;97061;-70
2022/08/31 02:07:53;;;;;;;21.60;18.15;;;;;;;24.53;58.07;94480.44;5016084;28;99670;-69
2022/08/31 02:10:18;;;;;;;23.58;17.50;;;;;;;24.60;58.32;94493.28;5017276;28;99842;-70
2022/08/31 02:12:44;;;;;;;19.27;17.17;;;;;;;24.60;57.85;94488.53;5017486;28;97252;-69
2022/08/31 02:15:10;;;;;;;21.58;16.65;;;;;;;24.55;58.27;94478.78;5017391;28;96902;-69
2022/08/31 02:17:35;;;;;;;19.20;16.05;;;;;;;24.62;57.97;94493.63;5016565;28;99146;-69
2022/08/31 02:20:01;;;;;;;17.15;15.35;;;;;;;24.62;57.64;94488.91;5016938;28;99382;-70
2022/08/31 02:22:26;;;;;;;18.02;15.05;;;;;;;24.63;57.72;94489.66;5017417;28;96612;-69
2022/08/31 02:24:51;;;;;;;19.00;14.95;;;;;;;24.64;57.75;94496.72;5018068;28;96999;-70
2022/08/31 02:27:17;;;;;;;18.70;16.23;;;;;;;24.65;57.28;94495.53;5017166;28;99497;-70
2022/08/31 02:29:42;;;;;;;18.23;15.38;;;;;;;24.66;57.38;94492.34;5016394;28;103764;-70
2022/08/31 02:32:08;;;;;;;17.05;15.02;;;;;;;24.61;57.20;94487.34;5016976;28;96772;-69
2022/08/31 02:34:33;;;;;;;17.98;15.30;;;;;;;24.69;57.11;94490.69;5017299;28;96945;-70
2022/08/31 02:36:59;;;;;;;20.48;14.80;;;;;;;24.69;57.36;94487.94;5016943;28;97947;-70
2022/08/31 02:39:25;;;;;;;17.17;14.40;;;;;;;24.70;57.24;94489.50;5016783;28;99845;-70
2022/08/31 02:41:50;;;;;;;17.30;14.68;;;;;;;24.69;56.76;94485.97;5017142;28;97786;-70
2022/08/31 02:44:15;;;;;;;17.23;15.32;;;;;;;24.71;57.26;94482.75;5016968;28;97225;-69
2022/08/31 02:46:41;;;;;;;18.13;13.70;;;;;;;24.73;57.01;94485.13;5016546;28;99460;-69
2022/08/31 02:49:06;;;;;;;16.13;14.38;;;;;;;24.75;56.68;94485.47;5016515;28;99101;-69
2022/08/31 02:51:32;;;;;;;16.73;14.30;;;;;;;24.74;56.53;94484.69;5017267;28;96746;-70
2022/08/31 02:53:57;;;;;;;18.42;14.30;;;;;;;24.70;56.83;94481.22;5017236;28;97024;-70
2022/08/31 02:56:23;;;;;;;17.98;13.63;;;;;;;24.75;56.60;94474.41;5016100;28;100514;-70
2022/08/31 02:58:53;;;;;;;14.88;12.93;;;;;;;24.69;56.73;94474.13;5016638;28;99298;-70
2022/08/31 03:01:22;;;;;;;16.10;13.88;;;;;;;24.70;56.37;94472.94;5016936;28;96635;-70
2022/08/31 03:03:47;;;;;;;17.10;13.65;;;;;;;24.75;56.70;94486.25;5016811;28;96945;-69
2022/08/31 03:06:13;;;;;;;14.30;12.48;;;;;;;24.72;57.20;94481.59;5016509;28;99966;-69
2022/08/31 03:08:40;;;;;;;16.00;13.13;;;;;;;24.75;57.06;94479.94;5016371;28;99966;-70
2022/08/31 03:11:06;;;;;;;15.35;12.93;;;;;;;24.78;57.23;94481.84;5016662;28;96688;-69
2022/08/31 03:13:32;;;;;;;14.95;13.35;;;;;;;24.77;56.87;94478.31;5016978;28;96923;-70
2022/08/31 03:15:57;;;;;;;14.35;12.52;;;;;;;24.78;57.39;94481.84;5016224;28;100058;-69
2022/08/31 03:18:23;;;;;;;18.05;13.30;;;;;;;24.73;57.71;94483.13;5015590;28;100246;-70
2022/08/31 03:20:48;;;;;;;14.07;12.57;;;;;;;24.63;57.64;94462.84;5016369;28;96857;-70
2022/08/31 03:23:14;;;;;;;19.55;13.50;;;;;;;24.76;57.20;94489.78;5016624;28;97145;-70
2022/08/31 03:25:40;;;;;;;16.80;13.27;;;;;;;24.73;56.67;94477.63;5016194;28;99916;-70
2022/08/31 03:28:06;;;;;;;15.00;13.02;;;;;;;24.77;56.33;94488.56;5016190;28;99174;-70
2022/08/31 03:30:31;;;;;;;14.00;12.48;;;;;;;24.78;56.88;94484.59;5016004;28;96888;-70
2022/08/31 03:32:56;;;;;;;13.68;12.27;;;;;;;24.79;56.57;94475.09;5016563;28;96935;-69
2022/08/31 03:35:22;;;;;;;14.20;11.65;;;;;;;24.74;56.22;94473.66;5016260;28;99284;-70
2022/08/31 03:37:47;;;;;;;16.48;12.40;;;;;;;24.80;56.33;94479.41;5015788;28;99265;-70
2022/08/31 03:40:13;;;;;;;16.23;12.82;;;;;;;24.76;56.67;94464.91;5016129;28;96856;-69
2022/08/31 03:42:39;;;;;;;13.93;12.02;;;;;;;24.81;56.80;94479.00;5016230;28;97288;-70
2022/08/31 03:45:06;;;;;;;15.25;12.90;;;;;;;24.82;56.92;94469.50;5015023;28;99706;-73
2022/08/31 03:47:32;;;;;;;16.05;12.63;;;;;;;24.82;57.79;94468.72;5015605;28;99461;-73
2022/08/31 03:49:57;;;;;;;13.10;11.68;;;;;;;24.82;56.97;94469.50;5016156;28;96597;-72
2022/08/31 03:52:22;;;;;;;13.30;11.85;;;;;;;24.81;56.04;94472.69;5015701;28;96982;-72
2022/08/31 03:54:48;;;;;;;12.77;11.45;;;;;;;24.83;55.62;94475.78;5014243;28;99475;-72
2022/08/31 03:57:14;;;;;;;14.75;11.48;;;;;;;24.83;56.01;94473.81;5015687;28;99696;-72
2022/08/31 03:59:39;;;;;;;12.40;11.10;;;;;;;24.84;55.81;94475.38;5014344;28;96823;-72
2022/08/31 04:02:04;;;;;;;16.00;11.55;;;;;;;24.83;56.48;94476.59;5015930;28;96928;-72
2022/08/31 04:04:30;;;;;;;14.30;11.70;;;;;;;24.84;56.55;94478.16;5015599;28;99662;-73
2022/08/31 04:06:55;;;;;;;12.55;11.23;;;;;;;24.84;56.62;94475.38;5015022;28;99585;-73
2022/08/31 04:09:21;;;;;;;17.50;12.18;;;;;;;24.85;56.31;94485.22;5015333;28;97330;-72
2022/08/31 04:11:46;;;;;;;13.43;10.98;;;;;;;24.85;56.34;94484.44;5015810;28;98340;-73
2022/08/31 04:14:12;;;;;;;15.85;11.75;;;;;;;24.80;56.71;94477.44;5014883;28;99931;-72
2022/08/31 04:16:38;;;;;;;13.32;11.00;;;;;;;24.82;56.43;94477.78;5014952;28;99535;-72
2022/08/31 04:19:03;;;;;;;16.85;11.38;;;;;;;24.82;56.38;94480.56;5015774;28;97045;-72
2022/08/31 04:21:29;;;;;;;13.15;11.13;;;;;;;24.78;55.82;94476.31;5015697;28;96958;-72
2022/08/31 04:23:55;;;;;;;16.45;11.90;;;;;;;24.81;55.71;94490.06;5015213;28;99255;-72
2022/08/31 04:26:28;;;;;;;14.40;11.65;;;;;;;24.80;55.63;94482.97;5015188;28;99041;-72
2022/08/31 04:28:54;;;;;;;14.90;11.27;;;;;;;24.82;55.57;94488.84;5015191;28;96791;-72
2022/08/31 04:31:20;;;;;;;15.15;11.93;;;;;;;24.81;55.33;94490.06;5014469;28;96802;-72
2022/08/31 04:33:45;;;;;;;15.23;11.68;;;;;;;24.83;55.42;94495.91;5015137;28;99665;-72
2022/08/31 04:36:19;;;;;;;13.73;11.50;;;;;;;24.83;55.69;94498.69;5014654;28;98979;-72
2022/08/31 04:38:46;;;;;;;15.98;11.35;;;;;;;24.79;55.61;94489.72;5015816;28;97233;-72
2022/08/31 04:41:12;;;;;;;13.98;11.98;;;;;;;24.78;55.80;94490.91;5015608;28;96942;-72
2022/08/31 04:43:38;;;;;;;14.52;11.88;;;;;;;24.85;55.62;94495.47;5014899;28;99422;-72
2022/08/31 04:46:05;;;;;;;16.80;11.13;;;;;;;24.81;55.60;94495.56;5014975;28;99492;-72
2022/08/31 04:48:31;;;;;;;15.52;12.25;;;;;;;24.86;55.68;94503.34;5015614;28;96849;-72
2022/08/31 04:51:26;;;;;;;13.30;11.88;;;;;;;24.84;55.61;94494.72;5015462;28;96982;-72
2022/08/31 04:53:52;;;;;;;13.60;12.02;;;;;;;24.85;55.69;94496.28;5013984;28;100137;-72
2022/08/31 04:56:20;;;;;;;14.48;12.20;;;;;;;24.83;56.33;94487.63;5014495;28;99710;-72
2022/08/31 04:58:50;;;;;;;18.25;12.20;;;;;;;24.84;56.61;94491.97;5014861;28;96980;-72
2022/08/31 05:01:18;;;;;;;17.15;12.02;;;;;;;24.85;56.62;94490.75;5015084;28;96874;-72
2022/08/31 05:03:43;;;;;;;16.08;12.02;;;;;;;24.88;56.78;94493.84;5014297;28;99566;-72
2022/08/31 05:06:13;;;;;;;15.13;11.48;;;;;;;24.87;56.72;94487.53;5014591;28;100494;-72
2022/08/31 05:08:38;;;;;;;15.30;12.25;;;;;;;24.85;56.44;94485.22;5015010;28;96590;-72
2022/08/31 05:11:15;;;;;;;17.48;12.57;;;;;;;24.86;56.57;94486.78;5015292;28;97038;-71
2022/08/31 05:13:41;;;;;;;15.45;12.32;;;;;;;24.89;56.70;94484.34;5014397;28;99069;-72
2022/08/31 05:16:09;;;;;;;15.57;11.55;;;;;;;24.86;56.59;94475.72;5014418;28;99303;-72
2022/08/31 05:18:36;;;;;;;15.15;11.77;;;;;;;24.87;56.38;94482.00;5014900;28;96738;-72
2022/08/31 05:21:28;;;;;;;15.15;12.48;;;;;;;24.88;56.21;94477.28;5013253;28;96898;-71
2022/08/31 05:23:56;;;;;;;17.52;11.70;;;;;;;24.83;56.53;94471.06;5011790;28;99602;-71
2022/08/31 05:26:23;;;;;;;16.55;12.02;;;;;;;24.83;56.55;94471.06;5013757;28;99693;-71
2022/08/31 05:28:48;;;;;;;13.88;11.57;;;;;;;24.83;56.40;94471.06;5014308;28;96626;-72
2022/08/31 05:31:13;;;;;;;15.65;12.32;;;;;;;24.83;56.83;94470.28;5014675;28;97010;-73
2022/08/31 05:33:39;;;;;;;13.98;11.85;;;;;;;24.85;56.75;94474.19;5013514;28;99989;-72
2022/08/31 05:36:05;;;;;;;14.63;12.30;;;;;;;24.84;56.71;94472.63;5013755;28;99491;-72
2022/08/31 05:38:30;;;;;;;16.60;11.95;;;;;;;24.86;56.44;94474.94;5014140;28;96723;-73
2022/08/31 05:40:57;;;;;;;16.77;11.77;;;;;;;24.86;56.44;94472.97;5014033;28;96927;-72
2022/08/31 05:43:23;;;;;;;17.52;12.05;;;;;;;24.84;56.35;94467.09;5013199;28;99482;-72
2022/08/31 05:45:48;;;;;;;14.35;12.15;;;;;;;24.83;56.32;94471.06;5013460;28;102947;-72
2022/08/31 05:48:14;;;;;;;15.45;12.05;;;;;;;24.84;56.17;94469.06;5013696;28;97106;-72
2022/08/31 05:50:39;;;;;;;15.80;11.55;;;;;;;24.81;56.49;94459.66;5014526;28;96985;-72
2022/08/31 05:53:05;;;;;;;16.38;13.00;;;;;;;24.83;55.78;94462.78;5013886;28;99570;-72
2022/08/31 05:55:30;;;;;;;16.02;12.07;;;;;;;24.85;55.97;94457.59;5014039;28;99515;-72
2022/08/31 05:57:56;;;;;;;16.58;11.85;;;;;;;24.82;55.93;94458.47;5014114;28;96769;-73
2022/08/31 06:00:22;;;;;;;13.90;12.23;;;;;;;24.84;55.99;94461.56;5014115;28;96945;-72
2022/08/31 06:02:47;;;;;;;15.25;12.25;;;;;;;24.85;55.78;94456.81;5020953;28;99760;-73
2022/08/31 06:05:13;;;;;;;14.38;11.88;;;;;;;24.86;57.02;94459.16;5025243;28;98465;-73
2022/08/31 06:07:38;;;;;;;16.63;12.68;;;;;;;24.87;56.76;94459.91;5030085;28;96877;-76
2022/08/31 06:10:04;;;;;;;15.90;12.18;;;;;;;24.90;57.07;94459.06;5027381;27;96973;-70
2022/08/31 06:12:32;;;;;;;247.20;60.13;;;;;;;24.90;56.74;94461.81;5016177;28;99425;-68
2022/08/31 06:14:58;;;;;;;293.40;100.47;;;;;;;24.91;56.46;94459.84;5026328;28;99334;-66
2022/08/31 06:17:23;;;;;;;176.30;51.15;;;;;;;24.89;56.13;94456.75;5017172;28;96860;-71
2022/08/31 06:19:50;;;;;;;120.15;38.60;;;;;;;24.92;57.04;94455.88;5016450;28;97860;-69
2022/08/31 06:22:16;;;;;;;123.72;41.15;;;;;;;24.92;57.22;94444.81;5013522;28;99718;-69
2022/08/31 06:24:41;;;;;;;138.23;39.75;;;;;;;24.92;56.87;94450.34;5013714;28;99392;-69
2022/08/31 06:27:09;;;;;;;120.85;37.33;;;;;;;24.88;56.80;94444.91;5013763;28;96878;-69
2022/08/31 06:29:34;;;;;;;103.63;34.50;;;;;;;24.91;56.92;94448.78;5013959;28;97610;-69
2022/08/31 06:32:04;;;;;;;91.93;32.20;;;;;;;24.91;56.77;94440.50;5013426;28;99441;-71
2022/08/31 06:34:30;;;;;;;98.55;30.90;;;;;;;24.89;56.59;94434.63;5013197;28;99661;-69
2022/08/31 06:36:55;;;;;;;97.60;34.10;;;;;;;24.92;56.68;94450.34;5013210;28;96875;-68
2022/08/31 06:39:22;;;;;;;86.47;30.50;;;;;;;24.91;56.55;94454.31;5013848;28;96998;-69
2022/08/31 06:41:48;;;;;;;88.80;29.80;;;;;;;24.91;56.66;94448.78;5012966;28;99579;-69
2022/08/31 06:44:13;;;;;;;91.10;30.17;;;;;;;24.91;56.55;94457.84;5012866;28;99574;-69
2022/08/31 06:46:39;;;;;;;76.47;28.30;;;;;;;24.88;56.42;94449.66;5013715;28;96700;-69
2022/08/31 06:49:05;;;;;;;67.93;25.45;;;;;;;24.86;56.59;94456.38;5013516;28;97036;-69
2022/08/31 06:51:35;;;;;;;69.38;26.45;;;;;;;24.93;56.65;94454.66;5012850;28;99741;-69
2022/08/31 06:54:02;;;;;;;61.22;26.73;;;;;;;24.94;56.21;94458.97;5014339;28;99526;-69
2022/08/31 06:56:27;;;;;;;68.28;25.95;;;;;;;24.92;56.12;94450.34;5016927;28;96834;-71
2022/08/31 06:58:53;;;;;;;67.32;24.90;;;;;;;24.86;56.13;94442.59;5017036;28;96913;-69
2022/08/31 07:01:25;;;;;;;61.45;24.20;;;;;;;24.94;56.03;94465.28;5016242;28;99540;-69
2022/08/31 07:03:51;;;;;;;57.83;23.55;;;;;;;24.95;56.27;94455.00;5016739;28;99514;-68
2022/08/31 07:06:23;;;;;;;59.42;25.77;;;;;;;24.95;56.42;94455.00;5016490;28;96750;-69
2022/08/31 07:08:51;;;;;;;54.50;23.65;;;;;;;24.94;56.25;94454.22;5016752;28;96951;-69
2022/08/31 07:11:19;;;;;;;60.85;23.23;;;;;;;24.92;56.35;94455.88;5016044;28;99598;-69
2022/08/31 07:13:45;;;;;;;51.30;23.02;;;;;;;24.92;56.06;94456.63;5015612;28;99353;-70
2022/08/31 07:16:12;;;;;;;56.00;21.98;;;;;;;24.93;56.70;94457.44;5015381;28;96635;-71
2022/08/31 07:18:38;;;;;;;53.05;21.48;;;;;;;24.90;56.40;94459.06;5016556;28;96948;-72
2022/08/31 07:21:08;;;;;;;48.60;20.80;;;;;;;24.85;56.12;94452.06;5014963;28;99815;-70
2022/08/31 07:23:33;;;;;;;46.15;21.83;;;;;;;24.92;56.28;94462.16;5016228;28;99528;-69
2022/08/31 07:26:03;;;;;;;42.95;21.75;;;;;;;24.92;56.30;94461.41;5015066;28;96752;-69
2022/08/31 07:28:30;;;;;;;41.83;20.52;;;;;;;24.91;56.29;94457.84;5016370;28;97118;-68
2022/08/31 07:30:55;;;;;;;41.75;19.55;;;;;;;24.91;56.34;94466.13;5015388;28;100025;-70
2022/08/31 07:33:20;;;;;;;46.88;22.27;;;;;;;24.92;56.01;94466.91;5015544;28;98951;-69
2022/08/31 07:35:46;;;;;;;42.83;20.08;;;;;;;24.92;56.35;94461.41;5016247;28;96828;-71
2022/08/31 07:43:40;;;;;;;38.08;18.80;;;;;;;24.92;56.47;94461.41;5016258;28;97059;-70
2022/08/31 07:46:06;;;;;;;35.88;19.50;;;;;;;24.92;56.53;94458.63;5015884;28;97296;-68
2022/08/31 07:48:31;;;;;;;35.33;19.13;;;;;;;24.92;56.60;94461.41;5015715;28;97038;-69
2022/08/31 07:50:56;;;;;;;35.22;19.08;;;;;;;24.92;56.29;94466.91;5015292;28;99713;-69
2022/08/31 07:53:23;;;;;;;35.15;18.35;;;;;;;24.91;56.46;94457.09;5015406;28;105807;-69
2022/08/31 07:55:54;;;;;;;38.92;19.25;;;;;;;24.84;56.40;94447.75;5015621;28;97140;-69
2022/08/31 07:58:21;;;;;;;35.30;18.45;;;;;;;24.89;56.47;94462.25;5015502;28;96827;-70
2022/08/31 08:00:48;;;;;;;32.85;17.80;;;;;;;24.82;56.47;94447.41;5015323;28;99635;-69
2022/08/31 08:03:13;;;;;;;32.83;18.67;;;;;;;24.84;56.62;94453.28;5014698;28;99323;-69
2022/08/31 08:05:40;;;;;;;32.08;19.05;;;;;;;24.79;56.57;94442.75;5015780;28;96772;-72
2022/08/31 08:08:06;;;;;;;33.30;18.05;;;;;;;24.88;56.61;94446.91;5015762;28;96898;-69
2022/08/31 08:10:32;;;;;;;33.42;18.35;;;;;;;24.89;56.81;94451.22;5014932;28;99520;-69
2022/08/31 08:13:01;;;;;;;28.20;16.73;;;;;;;24.89;56.26;94445.69;5015331;28;99373;-69
2022/08/31 08:15:27;;;;;;;30.83;18.83;;;;;;;24.89;57.01;94451.97;5015213;28;96701;-69
2022/08/31 08:17:52;;;;;;;33.28;17.95;;;;;;;24.88;56.52;94444.13;5015693;28;96930;-71
2022/08/31 08:20:18;;;;;;;30.52;17.58;;;;;;;24.86;56.63;94445.34;5015330;28;100161;-71
2022/08/31 08:22:44;;;;;;;32.05;19.17;;;;;;;24.86;56.81;94441.78;5015332;28;99219;-71
2022/08/31 08:25:10;;;;;;;29.33;17.98;;;;;;;24.84;56.35;94442.22;5015834;28;96659;-69
2022/08/31 08:27:35;;;;;;;28.02;17.30;;;;;;;24.78;56.31;94430.16;5015680;28;97071;-70
2022/08/31 08:30:01;;;;;;;29.25;16.23;;;;;;;24.89;56.81;94442.94;5014586;28;99799;-65
2022/08/31 08:32:30;;;;;;;24.80;16.55;;;;;;;24.93;56.56;94449.13;5014445;28;98994;-67
2022/08/31 08:34:55;;;;;;;25.67;15.60;;;;;;;24.75;56.14;94414.44;5015328;28;96841;-67
2022/08/31 08:37:21;;;;;;;24.67;15.15;;;;;;;24.96;56.91;94445.50;5015306;28;96862;-70
2022/08/31 08:39:46;;;;;;;27.83;16.50;;;;;;;24.95;56.26;94432.91;5014727;28;99512;-70
2022/08/31 08:42:13;;;;;;;24.52;15.25;;;;;;;24.97;56.81;94436.03;5014444;28;102207;-69
2022/08/31 08:44:38;;;;;;;25.85;15.30;;;;;;;25.01;57.17;94433.94;5015150;28;96822;-68
2022/08/31 08:47:13;;;;;;;23.85;14.90;;;;;;;25.00;56.72;94435.16;5014417;28;96904;-67
2022/08/31 08:49:53;;;;;;;24.55;17.67;;;;;;;25.04;56.94;94430.28;5013743;28;99856;-70
2022/08/31 08:52:27;;;;;;;24.88;19.38;;;;;;;25.05;57.22;94426.31;5014567;28;99441;-69
2022/08/31 08:54:53;;;;;;;27.05;19.48;;;;;;;25.04;56.22;94424.75;5015275;28;97247;-70
2022/08/31 08:57:27;;;;;;;25.40;18.17;;;;;;;25.05;56.25;94420.78;4997846;28;96937;-70
2022/08/31 08:59:57;;;;;;;25.13;18.23;;;;;;;25.02;56.32;94410.63;4997005;28;99479;-70
2022/08/31 09:02:35;;;;;;;23.42;18.00;;;;;;;25.05;56.54;94408.97;5014674;28;99412;-68
2022/08/31 09:05:29;;;;;;;26.35;18.30;;;;;;;25.11;56.09;94410.00;5013269;28;96933;-69
2022/08/31 09:08:42;;;;;;;26.60;19.25;;;;;;;25.12;56.38;94406.78;5015333;28;96861;-70
2022/08/31 09:11:16;;;;;;;27.60;19.40;;;;;;;25.13;56.96;94402.81;5003845;28;99866;-70
2022/08/31 09:14:09;;;;;;;29.80;19.98;;;;;;;25.14;56.86;94412.66;5013425;28;99812;-69
2022/08/31 09:16:53;;;;;;;25.00;18.92;;;;;;;25.14;56.57;94401.59;5013277;28;96754;-68
2022/08/31 09:19:19;;;;;;;26.92;18.95;;;;;;;25.14;56.52;94396.06;5014872;28;96798;-68
2022/08/31 09:21:52;;;;;;;25.02;19.13;;;;;;;25.15;56.57;94392.09;5014152;28;99685;-70
2022/08/31 09:24:19;;;;;;;27.00;18.83;;;;;;;25.17;57.30;94388.91;5014709;28;99879;-69
2022/08/31 09:27:19;;;;;;;23.85;18.42;;;;;;;25.19;56.84;94391.22;5014812;28;96756;-69
2022/08/31 09:29:45;;;;;;;20.70;16.92;;;;;;;25.19;56.78;94380.19;5014050;28;96979;-70
2022/08/31 09:32:16;;;;;;;25.05;18.40;;;;;;;25.19;56.64;94391.22;5013070;28;99428;-68
2022/08/31 09:34:42;;;;;;;23.63;17.55;;;;;;;25.19;56.13;94385.69;5014141;28;99448;-68
2022/08/31 09:37:19;;;;;;;22.77;16.95;;;;;;;25.12;56.52;94381.91;4995387;28;97041;-70
2022/08/31 09:39:49;;;;;;;26.35;17.85;;;;;;;25.15;56.12;94392.09;5013377;28;96922;-69
2022/08/31 09:42:31;;;;;;;24.33;17.13;;;;;;;25.19;55.96;94380.19;5012735;28;99617;-69
2022/08/31 09:44:58;;;;;;;;;;;;;;;25.19;56.48;94380.19;5014282;28;98827;-70
2022/08/31 09:47:51;;;;;;;22.15;16.27;;;;;;;25.15;56.40;94375.53;5014426;28;96747;-70
2022/08/31 09:50:44;;;;;;;23.55;16.95;;;;;;;25.16;56.29;94360.50;5014354;28;97045;-70
2022/08/31 09:56:12;;;;;;;24.92;17.35;;;;;;;25.17;55.86;94350.22;5012339;28;97010;-69
2022/08/31 09:58:43;;;;;;;22.77;16.48;;;;;;;25.19;56.22;94341.50;5014255;28;96894;-69
2022/08/31 10:01:17;;;;;;;21.05;16.63;;;;;;;25.21;56.47;94344.59;5014237;28;96943;-69
2022/08/31 10:03:44;;;;;;;22.55;16.65;;;;;;;25.23;56.19;94331.13;5012611;28;99363;-69
2022/08/31 10:06:38;;;;;;;20.67;17.13;;;;;;;25.25;56.39;94328.69;5012024;28;99572;-69
2022/08/31 10:09:06;;;;;;;23.98;16.75;;;;;;;25.25;56.26;94323.16;5013393;28;96852;-69
2022/08/31 10:11:31;;;;;;;20.35;16.80;;;;;;;25.24;56.46;94321.59;5013741;28;97001;-69
2022/08/31 10:14:34;;;;;;;21.17;15.40;;;;;;;25.26;56.58;94327.47;4995282;28;99397;-69
2022/08/31 10:17:27;;;;;;;22.27;16.10;;;;;;;25.23;56.48;94325.59;5000220;28;99680;-69
2022/08/31 10:20:04;;;;;;;21.30;17.00;;;;;;;25.22;56.22;94318.50;5013185;28;96863;-69
2022/08/31 10:22:40;;;;;;;21.90;16.77;;;;;;;25.29;56.37;94315.53;4997002;28;96880;-69
2022/08/31 10:25:16;;;;;;;20.80;16.45;;;;;;;25.23;56.16;94306.25;5013177;28;99302;-70
2022/08/31 10:27:50;;;;;;;20.10;15.38;;;;;;;25.28;56.41;94306.50;5013549;28;99622;-70
2022/08/31 10:30:46;;;;;;;19.83;15.43;;;;;;;25.30;56.28;94308.81;4998639;28;96762;-69
2022/08/31 10:33:15;;;;;;;22.05;16.55;;;;;;;25.28;56.82;94294.66;5015972;28;97058;-70
2022/08/31 10:35:54;;;;;;;19.25;15.40;;;;;;;25.26;56.39;94286.81;5016538;28;99551;-70
2022/08/31 10:38:26;;;;;;;22.27;16.25;;;;;;;25.33;56.73;94285.81;4998676;28;99456;-70
2022/08/31 10:41:10;;;;;;;17.52;14.88;;;;;;;25.34;56.39;94292.91;5017428;28;96875;-69
2022/08/31 10:43:52;;;;;;;17.40;13.77;;;;;;;25.34;56.63;94290.13;5017418;28;97102;-70
2022/08/31 10:46:17;;;;;;;;;;;;;;;25.33;56.09;94307.13;5017076;28;99595;-69
2022/08/31 10:48:45;;;;;;;20.65;15.20;;;;;;;25.29;56.33;94310.81;5032463;28;99638;-70
2022/08/31 10:51:19;;;;;;;18.48;15.02;;;;;;;25.28;56.23;94311.22;5016865;28;96704;-71
2022/08/31 10:54:11;;;;;;;18.50;14.00;;;;;;;25.30;55.78;94319.84;5015595;28;97006;-70
2022/08/31 10:56:43;;;;;;;17.75;14.73;;;;;;;25.24;55.69;94316.88;5015065;28;99706;-69
2022/08/31 10:59:30;;;;;;;17.92;15.00;;;;;;;25.26;55.50;94327.47;5015118;28;98143;-70
2022/08/31 11:02:10;;;;;;;17.83;14.68;;;;;;;25.29;55.44;94329.38;5015899;28;96877;-69
2022/08/31 11:04:50;;;;;;;18.70;14.45;;;;;;;25.22;55.26;94321.28;5000349;28;96977;-70
2022/08/31 11:07:23;;;;;;;17.17;14.27;;;;;;;25.28;55.17;94344.41;5015053;28;99465;-69
2022/08/31 11:09:49;;;;;;;19.08;14.35;;;;;;;25.27;55.51;94364.97;5016340;28;99798;-69
2022/08/31 11:12:20;;;;;;;19.52;15.00;;;;;;;25.24;55.39;94365.81;5016671;28;96849;-69
2022/08/31 11:15:15;;;;;;;20.70;15.73;;;;;;;25.24;55.32;94360.31;5015421;28;97569;-69
2022/08/31 11:18:05;;;;;;;19.15;14.93;;;;;;;25.23;55.54;94364.28;4978144;28;99519;-69
2022/08/31 11:20:53;;;;;;;18.48;15.23;;;;;;;25.22;55.34;94371.00;5015537;28;99375;-69
2022/08/31 11:23:41;;;;;;;18.25;14.68;;;;;;;25.20;55.63;94382.53;5016636;28;96689;-69
2022/08/31 11:26:16;;;;;;;17.52;14.98;;;;;;;25.22;55.43;94390.34;4999084;28;97127;-69
2022/08/31 11:28:55;;;;;;;19.38;14.20;;;;;;;25.15;55.44;94370.00;5016006;28;99673;-69
2022/08/31 11:31:26;;;;;;;20.33;14.88;;;;;;;25.21;55.26;94366.69;5014919;28;99461;-69
2022/08/31 11:34:24;;;;;;;18.83;15.77;;;;;;;25.21;55.39;94350.91;4999050;28;96699;-69
2022/08/31 11:36:58;;;;;;;18.42;15.25;;;;;;;25.21;55.33;94345.38;5015469;28;96875;-70
2022/08/31 11:39:44;;;;;;;19.67;16.48;;;;;;;25.22;55.68;94335.09;4998341;28;99514;-69